sensor_id;sensor_type;location;lat;lon;timestamp;pressure;altitude;pressure_sealevel;temperature;humidity
5996;BME280;3026;53.612;7.278;2023-04-07T00:01:44;101465.06;;;8.31;100.00
5996;BME280;3026;53.612;7.278;2023-04-07T00:04:11;101461.63;;;8.29;100.00
5996;BME280;3026;53.612;7.278;2023-04-07T00:06:38;101458.91;;;8.29;100.00
5996;BME280;3026;53.612;7.278;2023-04-07T00:09:07;101454.63;;;8.26;100.00
5996;BME280;3026;53.612;7.278;2023-04-07T00:11:36;101454.47;;;8.28;100.00
5996;BME280;3026;53.612;7.278;2023-04-07T00:14:03;101453.78;;;8.26;100.00
5996;BME280;3026;53.612;7.278;2023-04-07T00:16:30;101459.22;;;8.26;100.00
5996;BME280;3026;53.612;7.278;2023-04-07T00:18:56;101461.94;;;8.26;100.00
5996;BME280;3026;53.612;7.278;2023-04-07T00:21:23;101450.59;;;8.20;100.00
5996;BME280;3026;53.612;7.278;2023-04-07T00:23:51;101450.91;;;8.17;100.00
5996;BME280;3026;53.612;7.278;2023-04-07T00:26:18;101457.19;;;8.18;100.00
5996;BME280;3026;53.612;7.278;2023-04-07T00:28:46;101457.34;;;8.16;100.00
5996;BME280;3026;53.612;7.278;2023-04-07T00:31:13;101454.91;;;8.13;100.00
5996;BME280;3026;53.612;7.278;2023-04-07T00:33:40;101459.50;;;8.13;100.00
5996;BME280;3026;53.612;7.278;2023-04-07T00:36:07;101458.63;;;8.12;100.00
5996;BME280;3026;53.612;7.278;2023-04-07T00:38:34;101467.78;;;8.11;100.00
5996;BME280;3026;53.612;7.278;2023-04-07T00:41:01;101452.50;;;8.10;100.00
5996;BME280;3026;53.612;7.278;2023-04-07T00:43:27;101453.59;;;8.08;100.00
5996;BME280;3026;53.612;7.278;2023-04-07T00:45:56;101458.19;;;8.07;100.00
5996;BME280;3026;53.612;7.278;2023-04-07T00:48:23;101455.75;;;8.04;100.00
5996;BME280;3026;53.612;7.278;2023-04-07T00:50:50;101450.03;;;8.07;100.00
5996;BME280;3026;53.612;7.278;2023-04-07T00:53:17;101453.75;;;8.06;100.00
5996;BME280;3026;53.612;7.278;2023-04-07T00:55:43;101446.59;;;8.05;100.00
5996;BME280;3026;53.612;7.278;2023-04-07T00:58:10;101439.47;;;8.04;100.00
5996;BME280;3026;53.612;7.278;2023-04-07T01:00:41;101453.75;;;8.06;100.00
5996;BME280;3026;53.612;7.278;2023-04-07T01:03:15;101437.44;;;8.06;100.00
5996;BME280;3026;53.612;7.278;2023-04-07T01:05:49;101444.59;;;8.07;100.00
5996;BME280;3026;53.612;7.278;2023-04-07T01:08:22;101439.16;;;8.07;100.00
5996;BME280;3026;53.612;7.278;2023-04-07T01:10:52;101434.75;;;8.06;100.00
5996;BME280;3026;53.612;7.278;2023-04-07T01:13:25;101442.59;;;8.09;100.00
5996;BME280;3026;53.612;7.278;2023-04-07T01:15:54;101435.44;;;8.08;100.00
5996;BME280;3026;53.612;7.278;2023-04-07T01:18:27;101435.44;;;8.08;100.00
5996;BME280;3026;53.612;7.278;2023-04-07T01:20:59;101433.72;;;8.07;100.00
5996;BME280;3026;53.612;7.278;2023-04-07T01:23:37;101432.03;;;8.06;100.00
5996;BME280;3026;53.612;7.278;2023-04-07T01:26:17;101433.72;;;8.07;100.00
5996;BME280;3026;53.612;7.278;2023-04-07T01:28:56;101428.59;;;8.04;100.00
5996;BME280;3026;53.612;7.278;2023-04-07T01:31:29;101433.72;;;8.07;100.00
5996;BME280;3026;53.612;7.278;2023-04-07T01:33:58;101435.44;;;8.08;100.00
5996;BME280;3026;53.612;7.278;2023-04-07T01:36:26;101440.88;;;8.08;100.00
5996;BME280;3026;53.612;7.278;2023-04-07T01:38:55;101438.91;;;8.10;100.00
5996;BME280;3026;53.612;7.278;2023-04-07T01:41:23;101443.44;;;8.10;100.00
5996;BME280;3026;53.612;7.278;2023-04-07T01:43:51;101438.91;;;8.10;100.00
5996;BME280;3026;53.612;7.278;2023-04-07T01:46:19;101438.03;;;8.10;100.00
5996;BME280;3026;53.612;7.278;2023-04-07T01:48:48;101448.03;;;8.09;100.00
5996;BME280;3026;53.612;7.278;2023-04-07T01:51:16;101445.31;;;8.09;100.00
5996;BME280;3026;53.612;7.278;2023-04-07T01:53:44;101449.78;;;8.10;100.00
5996;BME280;3026;53.612;7.278;2023-04-07T01:56:11;101449.78;;;8.10;100.00
5996;BME280;3026;53.612;7.278;2023-04-07T01:58:38;101448.03;;;8.09;100.00
5996;BME280;3026;53.612;7.278;2023-04-07T02:01:05;101439.47;;;8.04;100.00
5996;BME280;3026;53.612;7.278;2023-04-07T02:03:36;101436.59;;;8.06;100.00
5996;BME280;3026;53.612;7.278;2023-04-07T02:06:08;101448.03;;;8.09;100.00
5996;BME280;3026;53.612;7.278;2023-04-07T02:08:41;101448.03;;;8.09;100.00
5996;BME280;3026;53.612;7.278;2023-04-07T02:11:14;101445.47;;;8.08;100.00
5996;BME280;3026;53.612;7.278;2023-04-07T02:13:43;101443.44;;;8.10;100.00
5996;BME280;3026;53.612;7.278;2023-04-07T02:16:11;101449.78;;;8.10;100.00
5996;BME280;3026;53.612;7.278;2023-04-07T02:18:39;101452.50;;;8.10;100.00
5996;BME280;3026;53.612;7.278;2023-04-07T02:21:08;101451.50;;;8.11;100.00
5996;BME280;3026;53.612;7.278;2023-04-07T02:23:35;101451.75;;;8.08;100.00
5996;BME280;3026;53.612;7.278;2023-04-07T02:26:02;101455.22;;;8.10;100.00
5996;BME280;3026;53.612;7.278;2023-04-07T02:28:29;101460.63;;;8.10;100.00
5996;BME280;3026;53.612;7.278;2023-04-07T02:30:56;101460.63;;;8.10;100.00
5996;BME280;3026;53.612;7.278;2023-04-07T02:33:23;101461.59;;;8.09;100.00
5996;BME280;3026;53.612;7.278;2023-04-07T02:35:50;101459.75;;;8.10;100.00
5996;BME280;3026;53.612;7.278;2023-04-07T02:38:18;101455.22;;;8.10;100.00
5996;BME280;3026;53.612;7.278;2023-04-07T02:40:44;101463.34;;;8.10;100.00
5996;BME280;3026;53.612;7.278;2023-04-07T02:43:11;101466.94;;;8.11;100.00
5996;BME280;3026;53.612;7.278;2023-04-07T02:45:38;101468.78;;;8.10;100.00
5996;BME280;3026;53.612;7.278;2023-04-07T02:48:05;101478.66;;;8.11;100.00
5996;BME280;3026;53.612;7.278;2023-04-07T02:50:32;101466.06;;;8.10;100.00
5996;BME280;3026;53.612;7.278;2023-04-07T02:52:58;101476.78;;;8.12;100.00
5996;BME280;3026;53.612;7.278;2023-04-07T02:55:27;101464.91;;;8.13;100.00
5996;BME280;3026;53.612;7.278;2023-04-07T02:57:53;101471.22;;;8.13;100.00
5996;BME280;3026;53.612;7.278;2023-04-07T03:00:20;101472.94;;;8.14;100.00
5996;BME280;3026;53.612;7.278;2023-04-07T03:02:47;101471.22;;;8.13;100.00
5996;BME280;3026;53.612;7.278;2023-04-07T03:05:14;101469.22;;;8.15;100.00
5996;BME280;3026;53.612;7.278;2023-04-07T03:07:40;101464.31;;;8.09;100.00
5996;BME280;3026;53.612;7.278;2023-04-07T03:10:08;101474.63;;;8.15;100.00
5996;BME280;3026;53.612;7.278;2023-04-07T03:12:36;101480.06;;;8.15;100.00
5996;BME280;3026;53.612;7.278;2023-04-07T03:15:04;101482.06;;;8.13;100.00
5996;BME280;3026;53.612;7.278;2023-04-07T03:17:32;101478.34;;;8.14;100.00
5996;BME280;3026;53.612;7.278;2023-04-07T03:19:58;101478.34;;;8.14;100.00
5996;BME280;3026;53.612;7.278;2023-04-07T03:22:25;101485.50;;;8.15;100.00
5996;BME280;3026;53.612;7.278;2023-04-07T03:24:52;101483.78;;;8.14;100.00
5996;BME280;3026;53.612;7.278;2023-04-07T03:27:19;101482.06;;;8.13;100.00
5996;BME280;3026;53.612;7.278;2023-04-07T03:29:47;101480.63;;;8.09;100.00
5996;BME280;3026;53.612;7.278;2023-04-07T03:32:15;101478.06;;;8.08;100.00
5996;BME280;3026;53.612;7.278;2023-04-07T03:34:42;101480.91;;;8.06;100.00
5996;BME280;3026;53.612;7.278;2023-04-07T03:37:09;101486.63;;;8.03;100.00
5996;BME280;3026;53.612;7.278;2023-04-07T03:39:36;101480.50;;;8.01;100.00
5996;BME280;3026;53.612;7.278;2023-04-07T03:42:03;101488.88;;;7.98;100.00
5996;BME280;3026;53.612;7.278;2023-04-07T03:44:30;101489.19;;;7.95;100.00
5996;BME280;3026;53.612;7.278;2023-04-07T03:47:00;101488.75;;;7.90;100.00
5996;BME280;3026;53.612;7.278;2023-04-07T03:49:26;101484.47;;;7.87;100.00
5996;BME280;3026;53.612;7.278;2023-04-07T03:51:53;101484.59;;;7.86;100.00
5996;BME280;3026;53.612;7.278;2023-04-07T03:54:20;101493.72;;;7.85;100.00
5996;BME280;3026;53.612;7.278;2023-04-07T03:56:47;101483.44;;;7.79;100.00
5996;BME280;3026;53.612;7.278;2023-04-07T03:59:14;101489.44;;;7.82;100.00
5996;BME280;3026;53.612;7.278;2023-04-07T04:01:41;101494.00;;;7.82;100.00
5996;BME280;3026;53.612;7.278;2023-04-07T04:04:09;101495.72;;;7.83;100.00
5996;BME280;3026;53.612;7.278;2023-04-07T04:06:36;101492.28;;;7.81;100.00
5996;BME280;3026;53.612;7.278;2023-04-07T04:09:03;101494.00;;;7.82;100.00
5996;BME280;3026;53.612;7.278;2023-04-07T04:11:29;101501.31;;;7.81;100.00
5996;BME280;3026;53.612;7.278;2023-04-07T04:13:57;101508.59;;;7.81;100.00
5996;BME280;3026;53.612;7.278;2023-04-07T04:16:24;101507.72;;;7.80;100.00
5996;BME280;3026;53.612;7.278;2023-04-07T04:18:50;101499.28;;;7.74;100.00
5996;BME280;3026;53.612;7.278;2023-04-07T04:21:18;101504.44;;;7.77;100.00
5996;BME280;3026;53.612;7.278;2023-04-07T04:23:45;101513.69;;;7.74;100.00
5996;BME280;3026;53.612;7.278;2023-04-07T04:26:12;101512.84;;;7.74;100.00
5996;BME280;3026;53.612;7.278;2023-04-07T04:28:39;101515.69;;;7.72;100.00
5996;BME280;3026;53.612;7.278;2023-04-07T04:31:05;101507.69;;;7.71;100.00
5996;BME280;3026;53.612;7.278;2023-04-07T04:33:32;101503.25;;;7.70;100.00
5996;BME280;3026;53.612;7.278;2023-04-07T04:35:59;101505.97;;;7.70;100.00
5996;BME280;3026;53.612;7.278;2023-04-07T04:38:27;101520.56;;;7.69;100.00
5996;BME280;3026;53.612;7.278;2023-04-07T04:40:54;101521.69;;;7.66;100.00
5996;BME280;3026;53.612;7.278;2023-04-07T04:43:20;101520.84;;;7.66;100.00
5996;BME280;3026;53.612;7.278;2023-04-07T04:45:47;101526.41;;;7.64;100.00
5996;BME280;3026;53.612;7.278;2023-04-07T04:48:14;101527.38;;;7.63;100.00
5996;BME280;3026;53.612;7.278;2023-04-07T04:50:41;101534.94;;;7.59;100.00
5996;BME280;3026;53.612;7.278;2023-04-07T04:53:08;101532.50;;;7.56;100.00
5996;BME280;3026;53.612;7.278;2023-04-07T04:55:37;101537.94;;;7.56;100.00
5996;BME280;3026;53.612;7.278;2023-04-07T04:58:05;101527.34;;;7.53;100.00
5996;BME280;3026;53.612;7.278;2023-04-07T05:00:32;101536.22;;;7.55;100.00
5996;BME280;3026;53.612;7.278;2023-04-07T05:02:58;101543.50;;;7.55;100.00
5996;BME280;3026;53.612;7.278;2023-04-07T05:05:25;101541.91;;;7.52;100.00
5996;BME280;3026;53.612;7.278;2023-04-07T05:07:52;101544.75;;;7.51;100.00
5996;BME280;3026;53.612;7.278;2023-04-07T05:10:19;101543.88;;;7.50;100.00
5996;BME280;3026;53.612;7.278;2023-04-07T05:12:47;101535.16;;;7.47;100.00
5996;BME280;3026;53.612;7.278;2023-04-07T05:15:14;101545.88;;;7.48;100.00
5996;BME280;3026;53.612;7.278;2023-04-07T05:17:41;101544.16;;;7.47;100.00
5996;BME280;3026;53.612;7.278;2023-04-07T05:20:09;101544.16;;;7.47;100.00
5996;BME280;3026;53.612;7.278;2023-04-07T05:22:36;101558.72;;;7.46;100.00
5996;BME280;3026;53.612;7.278;2023-04-07T05:25:03;101554.31;;;7.45;100.00
5996;BME280;3026;53.612;7.278;2023-04-07T05:27:30;101541.00;;;7.42;100.00
5996;BME280;3026;53.612;7.278;2023-04-07T05:29:58;101564.44;;;7.43;100.00
5996;BME280;3026;53.612;7.278;2023-04-07T05:32:26;101550.41;;;7.38;100.00
5996;BME280;3026;53.612;7.278;2023-04-07T05:34:53;101562.97;;;7.39;100.00
5996;BME280;3026;53.612;7.278;2023-04-07T05:37:20;101563.25;;;7.36;100.00
5996;BME280;3026;53.612;7.278;2023-04-07T05:39:47;101569.66;;;7.35;100.00
5996;BME280;3026;53.612;7.278;2023-04-07T05:42:14;101570.66;;;7.34;100.00
5996;BME280;3026;53.612;7.278;2023-04-07T05:44:41;101574.38;;;7.33;100.00
5996;BME280;3026;53.612;7.278;2023-04-07T05:47:09;101572.66;;;7.32;100.00
5996;BME280;3026;53.612;7.278;2023-04-07T05:49:36;101578.09;;;7.32;100.00
5996;BME280;3026;53.612;7.278;2023-04-07T05:52:10;101556.91;;;7.26;100.00
5996;BME280;3026;53.612;7.278;2023-04-07T05:54:36;101577.09;;;7.33;100.00
5996;BME280;3026;53.612;7.278;2023-04-07T05:57:04;101586.09;;;7.34;100.00
5996;BME280;3026;53.612;7.278;2023-04-07T05:59:31;101587.09;;;7.32;100.00
5996;BME280;3026;53.612;7.278;2023-04-07T06:01:58;101582.78;;;7.30;100.00
5996;BME280;3026;53.612;7.278;2023-04-07T06:04:26;101588.38;;;7.38;100.00
5996;BME280;3026;53.612;7.278;2023-04-07T06:06:53;101593.56;;;7.41;100.00
5996;BME280;3026;53.612;7.278;2023-04-07T06:09:20;101590.72;;;7.43;100.00
5996;BME280;3026;53.612;7.278;2023-04-07T06:11:47;101600.56;;;7.44;100.00
5996;BME280;3026;53.612;7.278;2023-04-07T06:14:16;101595.00;;;7.45;100.00
5996;BME280;3026;53.612;7.278;2023-04-07T06:16:43;101599.44;;;7.46;100.00
5996;BME280;3026;53.612;7.278;2023-04-07T06:19:10;101608.16;;;7.50;100.00
5996;BME280;3026;53.612;7.278;2023-04-07T06:21:38;101610.75;;;7.51;100.00
5996;BME280;3026;53.612;7.278;2023-04-07T06:24:06;101608.03;;;7.51;100.00
5996;BME280;3026;53.612;7.278;2023-04-07T06:26:33;101605.88;;;7.45;100.00
5996;BME280;3026;53.612;7.278;2023-04-07T06:29:00;101610.44;;;7.45;100.00
5996;BME280;3026;53.612;7.278;2023-04-07T06:31:27;101623.31;;;7.52;100.00
5996;BME280;3026;53.612;7.278;2023-04-07T06:33:54;101620.88;;;7.49;100.00
5996;BME280;3026;53.612;7.278;2023-04-07T06:36:21;101621.88;;;7.48;100.00
5996;BME280;3026;53.612;7.278;2023-04-07T06:38:50;101624.78;;;7.56;100.00
5996;BME280;3026;53.612;7.278;2023-04-07T06:41:17;101629.22;;;7.57;100.00
5996;BME280;3026;53.612;7.278;2023-04-07T06:43:46;101624.50;;;7.59;100.00
5996;BME280;3026;53.612;7.278;2023-04-07T06:46:13;101629.94;;;7.59;100.00
5996;BME280;3026;53.612;7.278;2023-04-07T06:48:40;101629.94;;;7.59;100.00
5996;BME280;3026;53.612;7.278;2023-04-07T06:51:07;101637.34;;;7.57;100.00
5996;BME280;3026;53.612;7.278;2023-04-07T06:53:33;101638.63;;;7.53;100.00
5996;BME280;3026;53.612;7.278;2023-04-07T06:56:07;101633.91;;;7.55;100.00
5996;BME280;3026;53.612;7.278;2023-04-07T06:58:34;101639.34;;;7.55;100.00
5996;BME280;3026;53.612;7.278;2023-04-07T07:01:01;101647.34;;;7.57;100.00
5996;BME280;3026;53.612;7.278;2023-04-07T07:03:29;101647.34;;;7.57;100.00
5996;BME280;3026;53.612;7.278;2023-04-07T07:05:57;101645.38;;;7.59;100.00
5996;BME280;3026;53.612;7.278;2023-04-07T07:08:24;101642.78;;;7.57;100.00
5996;BME280;3026;53.612;7.278;2023-04-07T07:10:51;101657.34;;;7.56;100.00
5996;BME280;3026;53.612;7.278;2023-04-07T07:13:21;101650.78;;;7.59;100.00
5996;BME280;3026;53.612;7.278;2023-04-07T07:15:48;101655.09;;;7.61;100.00
5996;BME280;3026;53.612;7.278;2023-04-07T07:18:16;101660.13;;;7.66;100.00
5996;BME280;3026;53.612;7.278;2023-04-07T07:20:43;101663.44;;;7.70;100.00
5996;BME280;3026;53.612;7.278;2023-04-07T07:23:10;101663.16;;;7.73;100.00
5996;BME280;3026;53.612;7.278;2023-04-07T07:25:37;101662.00;;;7.75;100.00
5996;BME280;3026;53.612;7.278;2023-04-07T07:28:04;101667.25;;;7.88;100.00
5996;BME280;3026;53.612;7.278;2023-04-07T07:30:32;101668.13;;;7.98;100.00
5996;BME280;3026;53.612;7.278;2023-04-07T07:32:59;101671.03;;;8.06;100.00
5996;BME280;3026;53.612;7.278;2023-04-07T07:35:26;101673.94;;;8.14;100.00
5996;BME280;3026;53.612;7.278;2023-04-07T07:37:52;101675.09;;;8.22;100.00
5996;BME280;3026;53.612;7.278;2023-04-07T07:40:19;101674.28;;;8.31;100.00
5996;BME280;3026;53.612;7.278;2023-04-07T07:42:46;101676.63;;;8.35;100.00
5996;BME280;3026;53.612;7.278;2023-04-07T07:45:13;101678.66;;;8.43;100.00
5996;BME280;3026;53.612;7.278;2023-04-07T07:47:43;101689.88;;;8.59;100.00
5996;BME280;3026;53.612;7.278;2023-04-07T07:50:10;101694.19;;;8.71;100.00
5996;BME280;3026;53.612;7.278;2023-04-07T07:52:36;101687.63;;;8.84;100.00
5996;BME280;3026;53.612;7.278;2023-04-07T07:55:04;101692.50;;;8.99;100.00
5996;BME280;3026;53.612;7.278;2023-04-07T07:57:31;101696.41;;;9.16;100.00
5996;BME280;3026;53.612;7.278;2023-04-07T07:59:58;101700.56;;;9.40;100.00
5996;BME280;3026;53.612;7.278;2023-04-07T08:02:25;101702.81;;;9.54;100.00
5996;BME280;3026;53.612;7.278;2023-04-07T08:04:57;101714.56;;;9.64;100.00
5996;BME280;3026;53.612;7.278;2023-04-07T08:07:24;101716.13;;;9.76;100.00
5996;BME280;3026;53.612;7.278;2023-04-07T08:09:51;101716.97;;;9.86;100.00
5996;BME280;3026;53.612;7.278;2023-04-07T08:12:18;101718.50;;;9.99;100.00
5996;BME280;3026;53.612;7.278;2023-04-07T08:14:45;101724.94;;;10.07;100.00
5996;BME280;3026;53.612;7.278;2023-04-07T08:17:12;101718.16;;;10.21;100.00
5996;BME280;3026;53.612;7.278;2023-04-07T08:19:38;101725.00;;;10.44;100.00
5996;BME280;3026;53.612;7.278;2023-04-07T08:22:07;101727.53;;;10.56;100.00
5996;BME280;3026;53.612;7.278;2023-04-07T08:24:33;101722.94;;;10.56;100.00
5996;BME280;3026;53.612;7.278;2023-04-07T08:27:00;101726.59;;;10.65;100.00
5996;BME280;3026;53.612;7.278;2023-04-07T08:29:27;101729.09;;;10.76;100.00
5996;BME280;3026;53.612;7.278;2023-04-07T08:31:54;101738.09;;;10.86;100.00
5996;BME280;3026;53.612;7.278;2023-04-07T08:34:21;101733.34;;;10.88;100.00
5996;BME280;3026;53.612;7.278;2023-04-07T08:36:48;101740.56;;;10.89;100.00
5996;BME280;3026;53.612;7.278;2023-04-07T08:39:16;101746.00;;;10.89;100.00
5996;BME280;3026;53.612;7.278;2023-04-07T08:41:44;101741.63;;;10.96;100.00
5996;BME280;3026;53.612;7.278;2023-04-07T08:44:14;101744.84;;;11.09;100.00
5996;BME280;3026;53.612;7.278;2023-04-07T08:46:42;101743.00;;;11.28;100.00
5996;BME280;3026;53.612;7.278;2023-04-07T08:49:10;101738.25;;;11.30;100.00
5996;BME280;3026;53.612;7.278;2023-04-07T08:51:43;101748.00;;;11.50;100.00
5996;BME280;3026;53.612;7.278;2023-04-07T08:54:12;101739.94;;;11.66;100.00
5996;BME280;3026;53.612;7.278;2023-04-07T08:56:41;101745.16;;;11.95;100.00
5996;BME280;3026;53.612;7.278;2023-04-07T08:59:10;101748.16;;;12.10;100.00
5996;BME280;3026;53.612;7.278;2023-04-07T09:01:38;101749.94;;;12.19;100.00
5996;BME280;3026;53.612;7.278;2023-04-07T09:04:06;101757.19;;;12.29;100.00
5996;BME280;3026;53.612;7.278;2023-04-07T09:06:34;101756.25;;;12.46;100.00
5996;BME280;3026;53.612;7.278;2023-04-07T09:09:01;101767.28;;;12.62;100.00
5996;BME280;3026;53.612;7.278;2023-04-07T09:11:34;101756.91;;;12.74;100.00
5996;BME280;3026;53.612;7.278;2023-04-07T09:14:02;101758.81;;;12.81;100.00
5996;BME280;3026;53.612;7.278;2023-04-07T09:16:29;101760.38;;;12.92;100.00
5996;BME280;3026;53.612;7.278;2023-04-07T09:18:56;101760.28;;;13.18;100.00
5996;BME280;3026;53.612;7.278;2023-04-07T09:21:23;101763.44;;;13.23;100.00
5996;BME280;3026;53.612;7.278;2023-04-07T09:23:51;101772.97;;;13.19;100.00
5996;BME280;3026;53.612;7.278;2023-04-07T09:26:20;101762.75;;;13.21;100.00
5996;BME280;3026;53.612;7.278;2023-04-07T09:28:51;101760.69;;;13.23;100.00
5996;BME280;3026;53.612;7.278;2023-04-07T09:31:20;101752.84;;;13.36;100.00
5996;BME280;3026;53.612;7.278;2023-04-07T09:33:48;101763.50;;;13.56;100.00
5996;BME280;3026;53.612;7.278;2023-04-07T09:36:15;101756.63;;;13.84;100.00
5996;BME280;3026;53.612;7.278;2023-04-07T09:38:43;101765.88;;;13.99;100.00
5996;BME280;3026;53.612;7.278;2023-04-07T09:41:11;101758.31;;;14.10;99.60
5996;BME280;3026;53.612;7.278;2023-04-07T09:43:40;101760.38;;;14.16;99.82
5996;BME280;3026;53.612;7.278;2023-04-07T09:46:10;101761.06;;;14.26;98.55
5996;BME280;3026;53.612;7.278;2023-04-07T09:48:39;101754.16;;;14.38;97.55
5996;BME280;3026;53.612;7.278;2023-04-07T09:51:07;101754.81;;;14.56;97.53
5996;BME280;3026;53.612;7.278;2023-04-07T09:53:42;101754.41;;;14.76;97.12
5996;BME280;3026;53.612;7.278;2023-04-07T09:56:09;101758.47;;;14.88;96.53
5996;BME280;3026;53.612;7.278;2023-04-07T09:58:37;101762.56;;;14.92;94.94
5996;BME280;3026;53.612;7.278;2023-04-07T10:01:06;101762.22;;;14.95;93.81
5996;BME280;3026;53.612;7.278;2023-04-07T10:03:33;101766.63;;;15.04;93.50
5996;BME280;3026;53.612;7.278;2023-04-07T10:06:03;101771.44;;;15.02;92.89
5996;BME280;3026;53.612;7.278;2023-04-07T10:08:33;101769.34;;;15.12;92.21
5996;BME280;3026;53.612;7.278;2023-04-07T10:11:00;101768.13;;;15.15;91.85
5996;BME280;3026;53.612;7.278;2023-04-07T10:13:28;101768.63;;;15.18;91.94
5996;BME280;3026;53.612;7.278;2023-04-07T10:15:55;101772.88;;;15.29;91.15
5996;BME280;3026;53.612;7.278;2023-04-07T10:18:27;101776.47;;;15.30;90.15
5996;BME280;3026;53.612;7.278;2023-04-07T10:20:55;101762.78;;;15.22;88.86
5996;BME280;3026;53.612;7.278;2023-04-07T10:23:31;101780.28;;;15.21;88.84
5996;BME280;3026;53.612;7.278;2023-04-07T10:26:01;101777.00;;;15.25;88.31
5996;BME280;3026;53.612;7.278;2023-04-07T10:28:30;101772.19;;;15.50;88.40
5996;BME280;3026;53.612;7.278;2023-04-07T10:30:58;101785.50;;;15.69;87.68
5996;BME280;3026;53.612;7.278;2023-04-07T10:33:44;101788.25;;;15.69;85.56
5996;BME280;3026;53.612;7.278;2023-04-07T10:36:11;101787.25;;;15.62;85.16
5996;BME280;3026;53.612;7.278;2023-04-07T10:38:40;101797.59;;;15.60;84.88
5996;BME280;3026;53.612;7.278;2023-04-07T10:41:31;101802.31;;;15.74;83.52
5996;BME280;3026;53.612;7.278;2023-04-07T10:43:59;101791.47;;;15.73;83.43
5996;BME280;3026;53.612;7.278;2023-04-07T10:49:27;101798.59;;;15.59;80.84
5996;BME280;3026;53.612;7.278;2023-04-07T10:52:21;101809.44;;;15.84;80.74
5996;BME280;3026;53.612;7.278;2023-04-07T10:58:20;101815.56;;;16.31;76.80
5996;BME280;3026;53.612;7.278;2023-04-07T11:01:20;101815.72;;;16.15;75.05
5996;BME280;3026;53.612;7.278;2023-04-07T11:03:59;101810.84;;;16.02;75.66
5996;BME280;3026;53.612;7.278;2023-04-07T11:06:26;101818.19;;;16.10;75.47
5996;BME280;3026;53.612;7.278;2023-04-07T11:08:53;101824.63;;;16.17;73.95
5996;BME280;3026;53.612;7.278;2023-04-07T11:11:36;101837.94;;;16.28;72.57
5996;BME280;3026;53.612;7.278;2023-04-07T11:14:04;101828.06;;;16.19;71.89
5996;BME280;3026;53.612;7.278;2023-04-07T11:16:41;101826.34;;;16.18;70.48
5996;BME280;3026;53.612;7.278;2023-04-07T11:19:10;101831.84;;;16.18;71.70
5996;BME280;3026;53.612;7.278;2023-04-07T11:21:38;101833.22;;;16.22;71.34
5996;BME280;3026;53.612;7.278;2023-04-07T11:24:05;101827.06;;;16.35;70.89
5996;BME280;3026;53.612;7.278;2023-04-07T11:26:38;101834.47;;;16.34;70.03
5996;BME280;3026;53.612;7.278;2023-04-07T11:29:05;101832.06;;;16.31;69.37
5996;BME280;3026;53.612;7.278;2023-04-07T11:31:32;101840.63;;;16.37;69.07
5996;BME280;3026;53.612;7.278;2023-04-07T11:34:00;101838.69;;;16.45;68.45
5996;BME280;3026;53.612;7.278;2023-04-07T11:36:30;101837.50;;;16.40;67.70
5996;BME280;3026;53.612;7.278;2023-04-07T11:38:58;101838.56;;;16.53;67.86
5996;BME280;3026;53.612;7.278;2023-04-07T11:41:27;101848.66;;;16.61;67.33
5996;BME280;3026;53.612;7.278;2023-04-07T11:44:06;101837.63;;;16.61;66.57
5996;BME280;3026;53.612;7.278;2023-04-07T11:46:34;101838.97;;;16.65;66.64
5996;BME280;3026;53.612;7.278;2023-04-07T11:49:08;101846.31;;;16.73;65.61
5996;BME280;3026;53.612;7.278;2023-04-07T11:51:35;101844.47;;;16.65;65.09
5996;BME280;3026;53.612;7.278;2023-04-07T11:54:02;101850.22;;;16.78;65.46
5996;BME280;3026;53.612;7.278;2023-04-07T11:56:29;101853.66;;;16.80;64.83
5996;BME280;3026;53.612;7.278;2023-04-07T11:59:08;101856.69;;;16.85;64.25
5996;BME280;3026;53.612;7.278;2023-04-07T12:01:38;101856.78;;;16.92;63.38
5996;BME280;3026;53.612;7.278;2023-04-07T12:04:06;101855.94;;;16.91;63.73
5996;BME280;3026;53.612;7.278;2023-04-07T12:06:37;101847.38;;;16.86;63.14
5996;BME280;3026;53.612;7.278;2023-04-07T12:09:06;101859.16;;;16.80;62.85
5996;BME280;3026;53.612;7.278;2023-04-07T12:11:34;101858.38;;;16.86;62.97
5996;BME280;3026;53.612;7.278;2023-04-07T12:14:01;101863.50;;;16.89;62.03
5996;BME280;3026;53.612;7.278;2023-04-07T12:16:30;101871.50;;;16.84;61.72
5996;BME280;3026;53.612;7.278;2023-04-07T12:18:58;101877.28;;;16.75;61.73
5996;BME280;3026;53.612;7.278;2023-04-07T12:21:25;101878.06;;;16.69;61.85
5996;BME280;3026;53.612;7.278;2023-04-07T12:23:52;101874.09;;;16.63;61.30
5996;BME280;3026;53.612;7.278;2023-04-07T12:26:19;101872.78;;;16.59;60.99
5996;BME280;3026;53.612;7.278;2023-04-07T12:28:46;101872.78;;;16.59;61.27
5996;BME280;3026;53.612;7.278;2023-04-07T12:31:13;101880.97;;;16.67;60.68
5996;BME280;3026;53.612;7.278;2023-04-07T12:33:41;101875.31;;;16.83;60.25
5996;BME280;3026;53.612;7.278;2023-04-07T12:36:08;101874.53;;;16.89;60.35
5996;BME280;3026;53.612;7.278;2023-04-07T12:38:35;101877.66;;;17.01;60.32
5996;BME280;3026;53.612;7.278;2023-04-07T12:41:02;101883.03;;;17.03;60.56
5996;BME280;3026;53.612;7.278;2023-04-07T12:43:29;101882.31;;;17.01;59.93
5996;BME280;3026;53.612;7.278;2023-04-07T12:45:56;101880.16;;;16.96;59.53
5996;BME280;3026;53.612;7.278;2023-04-07T12:48:23;101876.94;;;17.07;59.74
5996;BME280;3026;53.612;7.278;2023-04-07T12:50:52;101880.06;;;17.19;60.02
5996;BME280;3026;53.612;7.278;2023-04-07T12:53:19;101877.03;;;17.14;59.25
5996;BME280;3026;53.612;7.278;2023-04-07T12:55:46;101880.44;;;17.16;58.97
5996;BME280;3026;53.612;7.278;2023-04-07T12:58:13;101887.38;;;17.27;58.82
5996;BME280;3026;53.612;7.278;2023-04-07T13:00:41;101881.94;;;17.33;58.60
5996;BME280;3026;53.612;7.278;2023-04-07T13:03:08;101885.75;;;17.32;58.18
5996;BME280;3026;53.612;7.278;2023-04-07T13:05:35;101876.22;;;17.35;58.35
5996;BME280;3026;53.612;7.278;2023-04-07T13:08:04;101878.13;;;17.49;58.27
5996;BME280;3026;53.612;7.278;2023-04-07T13:10:32;101886.75;;;17.46;58.05
5996;BME280;3026;53.612;7.278;2023-04-07T13:12:59;101886.91;;;17.38;58.35
5996;BME280;3026;53.612;7.278;2023-04-07T13:15:26;101888.97;;;17.36;58.18
5996;BME280;3026;53.612;7.278;2023-04-07T13:17:53;101881.47;;;17.30;58.78
5996;BME280;3026;53.612;7.278;2023-04-07T13:20:20;101873.41;;;17.28;58.80
5996;BME280;3026;53.612;7.278;2023-04-07T13:22:47;101881.00;;;17.26;58.75